createdAt,value
2022-08-20T00:00:22.640Z,26.26
2022-08-20T00:02:55.760Z,26.23
2022-08-20T00:05:46.016Z,26.16
2022-08-20T00:08:14.335Z,26.10
2022-08-20T00:10:47.597Z,25.98
2022-08-20T00:13:21.715Z,25.95
2022-08-20T00:15:49.008Z,25.94
2022-08-20T00:18:16.573Z,25.92
2022-08-20T00:20:47.312Z,25.92
2022-08-20T00:23:15.982Z,25.83
2022-08-20T00:25:44.530Z,25.66
2022-08-20T00:28:13.193Z,25.54
2022-08-20T00:30:43.050Z,25.50
2022-08-20T00:33:14.133Z,25.46
2022-08-20T00:35:45.193Z,25.43
2022-08-20T00:38:13.262Z,25.45
2022-08-20T00:40:53.625Z,25.42
2022-08-20T00:43:34.807Z,25.42
2022-08-20T00:46:11.381Z,25.43
2022-08-20T00:48:41.181Z,25.37
2022-08-20T00:51:15.392Z,25.31
2022-08-20T00:53:43.486Z,25.30
2022-08-20T00:56:12.921Z,25.31
2022-08-20T00:58:40.769Z,25.33
2022-08-20T01:01:09.646Z,25.34
2022-08-20T01:03:37.315Z,25.18
2022-08-20T01:06:05.069Z,25.14
2022-08-20T01:08:32.333Z,25.10
2022-08-20T01:11:10.645Z,25.09
2022-08-20T01:13:39.827Z,25.08
2022-08-20T01:16:28.163Z,25.00
2022-08-20T01:18:57.813Z,24.97
2022-08-20T01:21:31.853Z,24.98
2022-08-20T01:24:12.842Z,24.99
2022-08-20T01:26:44.247Z,25.00
2022-08-20T01:29:16.343Z,25.00
2022-08-20T01:31:44.613Z,24.99
2022-08-20T01:34:15.161Z,25.00
2022-08-20T01:36:46.695Z,25.00
2022-08-20T01:39:17.901Z,24.95
2022-08-20T01:41:46.015Z,24.84
2022-08-20T01:44:17.007Z,24.75
2022-08-20T01:46:47.897Z,24.63
2022-08-20T01:49:23.771Z,24.53
2022-08-20T01:51:53.193Z,24.45
2022-08-20T01:54:21.564Z,24.38
2022-08-20T01:57:00.107Z,24.29
2022-08-20T01:59:28.753Z,24.20
2022-08-20T02:01:58.586Z,24.20
2022-08-20T02:04:27.231Z,24.16
2022-08-20T02:06:57.886Z,24.12
2022-08-20T02:09:27.648Z,24.11
2022-08-20T02:11:55.024Z,24.13
2022-08-20T02:14:22.366Z,24.09
2022-08-20T02:16:55.033Z,24.08
2022-08-20T02:19:28.071Z,24.06
2022-08-20T02:21:58.977Z,24.03
2022-08-20T02:24:26.240Z,24.00
2022-08-20T02:26:53.623Z,24.01
2022-08-20T02:29:20.741Z,24.03
2022-08-20T02:32:24.490Z,24.05
2022-08-20T02:34:36.040Z,24.05
2022-08-20T02:37:05.296Z,24.07
2022-08-20T02:39:32.881Z,24.15
2022-08-20T02:42:00.337Z,24.19
2022-08-20T02:44:27.678Z,24.21
2022-08-20T02:46:54.837Z,24.18
2022-08-20T02:49:22.583Z,24.16
2022-08-20T02:51:49.927Z,24.16
2022-08-20T02:54:18.038Z,24.17
2022-08-20T02:56:45.321Z,24.20
2022-08-20T02:59:19.560Z,24.25
2022-08-20T03:01:55.880Z,24.31
2022-08-20T03:04:29.642Z,24.34
2022-08-20T03:06:57.624Z,24.37
2022-08-20T03:09:25.039Z,24.41
2022-08-20T03:11:53.108Z,24.40
2022-08-20T03:14:20.245Z,24.39
2022-08-20T03:16:47.659Z,24.37
2022-08-20T03:19:14.842Z,24.35
2022-08-20T03:21:42.607Z,24.33
2022-08-20T03:24:09.861Z,24.30
2022-08-20T03:26:37.286Z,24.28
2022-08-20T03:29:04.978Z,24.26
2022-08-20T03:31:32.249Z,24.25
2022-08-20T03:33:59.451Z,24.26
2022-08-20T03:36:29.096Z,24.25
2022-08-20T03:38:57.745Z,24.26
2022-08-20T03:41:25.863Z,24.30
2022-08-20T03:43:53.267Z,24.32
2022-08-20T03:46:22.899Z,24.35
2022-08-20T03:48:56.637Z,24.41
2022-08-20T03:51:30.798Z,24.46
2022-08-20T03:53:59.157Z,24.49
2022-08-20T03:56:26.935Z,24.51
2022-08-20T03:58:54.482Z,24.51
2022-08-20T04:01:45.258Z,24.54
2022-08-20T04:04:12.106Z,24.60
2022-08-20T04:06:40.568Z,24.64
2022-08-20T04:09:09.519Z,24.66
2022-08-20T04:11:38.730Z,24.67
2022-08-20T04:14:05.998Z,24.69
2022-08-20T04:16:33.555Z,24.70
2022-08-20T04:19:02.408Z,24.72
2022-08-20T04:21:34.699Z,24.79
2022-08-20T04:24:04.679Z,24.81
2022-08-20T04:26:31.926Z,24.83
2022-08-20T04:28:59.489Z,24.86
2022-08-20T04:31:33.534Z,24.88
2022-08-20T04:34:08.140Z,24.92
2022-08-20T04:36:35.803Z,24.99
2022-08-20T04:39:03.089Z,25.06
2022-08-20T04:41:30.326Z,25.14
2022-08-20T04:43:58.492Z,25.27
2022-08-20T04:46:28.853Z,25.62
2022-08-20T04:48:57.754Z,25.85
2022-08-20T04:51:27.007Z,25.92
2022-08-20T04:53:56.488Z,26.03
2022-08-20T04:56:27.325Z,26.68
2022-08-20T04:58:57.431Z,28.10
2022-08-20T05:01:26.369Z,29.44
2022-08-20T05:03:55.112Z,29.98
2022-08-20T05:06:25.878Z,29.73
2022-08-20T05:08:53.944Z,29.38
2022-08-20T05:11:33.807Z,29.41
2022-08-20T05:14:09.342Z,30.28
2022-08-20T05:16:39.021Z,31.87
2022-08-20T05:19:12.081Z,33.35
2022-08-20T05:21:40.286Z,34.52
2022-08-20T05:24:08.070Z,35.47
2022-08-20T05:26:35.421Z,35.49
2022-08-20T05:29:05.371Z,36.35
2022-08-20T05:31:33.777Z,36.84
2022-08-20T05:34:10.845Z,37.42
2022-08-20T05:36:46.961Z,37.60
2022-08-20T05:39:18.455Z,38.21
2022-08-20T05:41:45.742Z,38.18
2022-08-20T05:44:16.257Z,38.22
2022-08-20T05:46:45.142Z,38.18
2022-08-20T05:49:16.868Z,38.60
2022-08-20T05:51:44.352Z,38.12
2022-08-20T05:54:12.590Z,38.62
2022-08-20T05:56:42.664Z,38.83
2022-08-20T05:59:12.809Z,38.41
2022-08-20T06:01:43.911Z,38.71
2022-08-20T06:04:32.066Z,39.13
2022-08-20T06:07:05.553Z,39.42
2022-08-20T06:09:33.287Z,39.74
2022-08-20T06:12:03.017Z,39.69
2022-08-20T06:14:31.314Z,39.76
2022-08-20T06:17:15.366Z,39.35
2022-08-20T06:19:44.799Z,39.51
2022-08-20T06:22:20.486Z,39.47
2022-08-20T06:24:52.191Z,38.90
2022-08-20T06:27:19.901Z,38.24
2022-08-20T06:29:47.318Z,38.97
2022-08-20T06:32:15.119Z,38.85
2022-08-20T06:34:48.997Z,39.34
2022-08-20T06:37:22.050Z,38.17
2022-08-20T06:39:51.049Z,36.82
2022-08-20T06:42:21.137Z,37.57
2022-08-20T06:44:50.529Z,37.81
2022-08-20T06:47:20.146Z,38.09
2022-08-20T06:49:48.934Z,38.60
2022-08-20T06:52:17.301Z,37.48
2022-08-20T06:54:46.102Z,37.10
2022-08-20T06:57:13.421Z,36.65
2022-08-20T06:59:42.173Z,36.44
2022-08-20T07:02:09.419Z,35.45
2022-08-20T07:04:37.592Z,35.51
2022-08-20T07:07:05.104Z,36.67
2022-08-20T07:09:32.368Z,35.97
2022-08-20T07:11:59.538Z,35.75
2022-08-20T07:14:27.361Z,36.90
2022-08-20T07:16:54.612Z,37.36
2022-08-20T07:19:21.985Z,37.24
2022-08-20T07:21:50.910Z,37.98
2022-08-20T07:24:18.388Z,38.33
2022-08-20T07:26:46.301Z,38.86
2022-08-20T07:29:13.773Z,38.24
2022-08-20T07:32:00.001Z,38.54
2022-08-20T07:34:27.494Z,39.04
2022-08-20T07:36:55.258Z,39.25
2022-08-20T07:39:23.029Z,37.17
2022-08-20T07:42:03.435Z,37.54
2022-08-20T07:44:31.440Z,37.02
2022-08-20T07:46:59.925Z,36.37
2022-08-20T07:49:27.725Z,35.94
2022-08-20T07:51:54.940Z,35.33
2022-08-20T07:54:24.431Z,34.62
2022-08-20T07:56:51.751Z,34.22
2022-08-20T07:59:20.503Z,33.93
2022-08-20T08:01:47.971Z,34.00
2022-08-20T08:04:16.351Z,34.15
2022-08-20T08:06:45.533Z,34.46
2022-08-20T08:09:14.502Z,34.27
2022-08-20T08:11:50.633Z,34.06
2022-08-20T08:14:26.935Z,33.73
2022-08-20T08:16:57.557Z,33.60
2022-08-20T08:19:26.452Z,33.31
2022-08-20T08:21:53.965Z,33.33
2022-08-20T08:24:25.371Z,33.54
2022-08-20T08:26:56.798Z,33.30
2022-08-20T08:29:24.115Z,33.13
2022-08-20T08:31:51.324Z,33.31
2022-08-20T08:34:18.692Z,33.48
2022-08-20T08:37:34.775Z,32.99
2022-08-20T08:40:02.821Z,32.68
2022-08-20T08:42:32.851Z,32.37
2022-08-20T08:45:00.926Z,32.44
2022-08-20T08:47:35.853Z,32.30
2022-08-20T08:50:06.218Z,32.18
2022-08-20T08:52:41.260Z,31.90
2022-08-20T08:55:16.339Z,31.57
2022-08-20T08:57:44.447Z,31.15
2022-08-20T09:00:18.099Z,31.05
2022-08-20T09:03:09.952Z,30.86
2022-08-20T09:05:43.631Z,30.68
2022-08-20T09:08:19.565Z,30.56
2022-08-20T09:10:46.901Z,30.38
2022-08-20T09:13:14.536Z,30.19
2022-08-20T09:15:42.555Z,30.19
2022-08-20T09:18:09.973Z,30.05
2022-08-20T09:20:38.206Z,30.07
2022-08-20T09:23:08.636Z,30.22
2022-08-20T09:25:36.110Z,30.15
2022-08-20T09:28:03.771Z,30.19
2022-08-20T09:30:32.347Z,30.16
2022-08-20T09:33:00.844Z,30.19
2022-08-20T09:35:31.874Z,30.18
2022-08-20T09:37:59.611Z,30.04
2022-08-20T09:40:27.048Z,29.84
2022-08-20T09:42:54.508Z,29.92
2022-08-20T09:45:21.984Z,30.11
2022-08-20T09:47:56.961Z,30.22
2022-08-20T09:50:30.534Z,30.41
2022-08-20T09:52:59.881Z,30.44
2022-08-20T09:55:45.160Z,30.44
2022-08-20T09:58:44.719Z,30.44
2022-08-20T10:01:16.323Z,30.60
2022-08-20T10:03:45.156Z,30.44
2022-08-20T10:06:14.901Z,30.46
2022-08-20T10:08:42.103Z,30.56
2022-08-20T10:11:09.683Z,30.55
2022-08-20T10:13:36.863Z,30.39
2022-08-20T10:16:04.519Z,30.25
2022-08-20T10:18:31.770Z,30.32
2022-08-20T10:20:59.014Z,30.25
2022-08-20T10:23:26.475Z,30.44
2022-08-20T10:25:53.701Z,30.58
2022-08-20T10:28:21.151Z,30.39
2022-08-20T10:30:48.313Z,30.40
2022-08-20T10:33:15.581Z,30.57
2022-08-20T10:35:42.798Z,30.54
2022-08-20T10:38:10.094Z,30.61
2022-08-20T10:40:37.329Z,30.58
2022-08-20T10:43:04.844Z,30.56
2022-08-20T10:45:32.008Z,30.59
2022-08-20T10:48:01.005Z,30.52
2022-08-20T10:50:31.183Z,30.65
2022-08-20T10:52:59.251Z,30.57
2022-08-20T10:55:26.735Z,30.69
2022-08-20T10:57:53.993Z,30.78
2022-08-20T11:00:21.273Z,30.79
2022-08-20T11:02:48.502Z,30.89
2022-08-20T11:05:16.126Z,30.81
2022-08-20T11:07:55.439Z,30.80
2022-08-20T11:10:30.434Z,30.56
2022-08-20T11:12:58.029Z,30.82
2022-08-20T11:15:25.529Z,30.74
2022-08-20T11:17:53.305Z,30.93
2022-08-20T11:20:23.920Z,30.70
2022-08-20T11:22:51.291Z,30.75
2022-08-20T11:25:19.427Z,30.76
2022-08-20T11:27:49.989Z,30.99
2022-08-20T11:30:27.469Z,30.79
2022-08-20T11:32:55.218Z,31.06
2022-08-20T11:35:42.254Z,31.00
2022-08-20T11:38:11.368Z,30.89
2022-08-20T11:40:38.881Z,30.98
2022-08-20T11:43:15.098Z,31.05
2022-08-20T11:45:46.098Z,30.91
2022-08-20T11:48:13.832Z,30.78
2022-08-20T11:50:42.034Z,30.69
2022-08-20T11:53:09.388Z,30.75
2022-08-20T11:55:37.718Z,30.76
2022-08-20T11:58:07.157Z,30.97
2022-08-20T12:00:37.029Z,30.94
2022-08-20T12:03:09.173Z,31.05
2022-08-20T12:05:41.192Z,30.99
2022-08-20T12:08:09.495Z,30.92
2022-08-20T12:10:38.289Z,30.72
2022-08-20T12:13:07.016Z,30.76
2022-08-20T12:15:36.334Z,30.53
2022-08-20T12:18:10.818Z,30.44
2022-08-20T12:20:38.360Z,30.35
2022-08-20T12:23:05.677Z,30.34
2022-08-20T12:25:33.062Z,30.10
2022-08-20T12:28:00.358Z,29.72
2022-08-20T12:30:27.618Z,29.87
2022-08-20T12:32:54.880Z,30.01
2022-08-20T12:35:22.253Z,29.94
2022-08-20T12:37:49.617Z,30.05
2022-08-20T12:40:31.859Z,30.29
2022-08-20T12:43:02.566Z,30.07
2022-08-20T12:45:30.817Z,29.94
2022-08-20T12:48:10.687Z,29.92
2022-08-20T12:50:40.372Z,29.70
2022-08-20T12:53:07.637Z,29.44
2022-08-20T12:55:35.901Z,29.56
2022-08-20T12:58:04.531Z,29.44
2022-08-20T13:00:43.399Z,29.25
2022-08-20T13:03:12.908Z,29.20
2022-08-20T13:05:40.851Z,29.45
2022-08-20T13:08:10.571Z,29.78
2022-08-20T13:10:45.867Z,29.83
2022-08-20T13:13:17.456Z,29.90
2022-08-20T13:15:47.883Z,30.19
2022-08-20T13:18:15.332Z,30.10
2022-08-20T13:20:42.737Z,30.17
2022-08-20T13:23:10.121Z,30.06
2022-08-20T13:25:37.485Z,29.92
2022-08-20T13:28:06.154Z,30.04
2022-08-20T13:30:35.339Z,29.90
2022-08-20T13:33:02.739Z,30.11
2022-08-20T13:35:31.614Z,30.21
2022-08-20T13:37:59.036Z,30.15
2022-08-20T13:40:26.580Z,30.28
2022-08-20T13:42:54.218Z,30.35
2022-08-20T13:45:21.686Z,30.27
2022-08-20T13:47:53.391Z,30.21
2022-08-20T13:50:22.996Z,29.90
2022-08-20T13:52:50.689Z,29.81
2022-08-20T13:55:20.532Z,29.63
2022-08-20T13:57:49.495Z,29.55
2022-08-20T14:00:31.000Z,29.26
2022-08-20T14:03:02.074Z,29.26
2022-08-20T14:05:30.759Z,29.14
2022-08-20T14:08:09.497Z,29.19
2022-08-20T14:10:37.305Z,29.17
2022-08-20T14:13:06.872Z,29.13
2022-08-20T14:15:35.773Z,29.09
2022-08-20T14:18:04.434Z,29.02
2022-08-20T14:20:33.814Z,29.12
2022-08-20T14:23:01.861Z,28.97
2022-08-20T14:25:32.511Z,29.01
2022-08-20T14:28:10.720Z,28.98
2022-08-20T14:30:38.031Z,28.94
2022-08-20T14:33:05.318Z,28.92
2022-08-20T14:35:32.554Z,28.96
2022-08-20T14:38:01.724Z,29.12
2022-08-20T14:40:33.611Z,29.14
2022-08-20T14:43:01.134Z,29.26
2022-08-20T14:45:28.379Z,29.07
2022-08-20T14:47:58.003Z,28.95
2022-08-20T14:50:27.229Z,29.10
2022-08-20T14:52:55.766Z,29.26
2022-08-20T14:55:26.737Z,29.16
2022-08-20T14:57:54.839Z,29.02
2022-08-20T15:00:25.831Z,28.94
2022-08-20T15:02:53.854Z,29.14
2022-08-20T15:05:21.162Z,29.28
2022-08-20T15:07:51.569Z,29.13
2022-08-20T15:10:28.863Z,28.96
2022-08-20T15:12:56.526Z,29.00
2022-08-20T15:15:26.875Z,28.87
2022-08-20T15:17:57.208Z,29.08
2022-08-20T15:20:27.871Z,29.26
2022-08-20T15:22:55.840Z,29.25
2022-08-20T15:25:25.408Z,29.09
2022-08-20T15:27:59.296Z,29.08
2022-08-20T15:30:31.192Z,28.93
2022-08-20T15:32:58.888Z,28.67
2022-08-20T15:35:28.285Z,28.74
2022-08-20T15:37:58.229Z,28.77
2022-08-20T15:40:28.845Z,28.77
2022-08-20T15:43:01.548Z,28.68
2022-08-20T15:45:29.213Z,28.56
2022-08-20T15:48:10.682Z,28.51
2022-08-20T15:51:04.281Z,28.46
2022-08-20T15:54:14.771Z,28.49
2022-08-20T15:57:07.629Z,28.56
2022-08-20T15:59:37.459Z,28.54
2022-08-20T16:02:22.569Z,28.46
2022-08-20T16:05:07.751Z,28.52
2022-08-20T16:07:55.372Z,28.60
2022-08-20T16:10:50.372Z,28.66
2022-08-20T16:13:28.996Z,28.78
2022-08-20T16:15:59.832Z,28.84
2022-08-20T16:18:35.047Z,28.82
2022-08-20T16:21:08.640Z,28.71
2022-08-20T16:23:40.193Z,28.63
2022-08-20T16:26:37.654Z,28.65
2022-08-20T16:29:40.018Z,28.66
2022-08-20T16:32:13.611Z,28.63
2022-08-20T16:35:03.262Z,28.62
2022-08-20T16:37:38.307Z,28.61
2022-08-20T16:40:05.781Z,28.67
2022-08-20T16:42:41.964Z,28.66
2022-08-20T16:45:17.087Z,28.72
2022-08-20T16:47:46.862Z,28.74
2022-08-20T16:50:17.522Z,28.76
2022-08-20T16:52:47.009Z,28.70
2022-08-20T16:55:14.834Z,28.69
2022-08-20T16:57:43.205Z,28.65
2022-08-20T17:00:14.011Z,28.58
2022-08-20T17:02:57.799Z,28.58
2022-08-20T17:05:28.718Z,28.72
2022-08-20T17:08:02.057Z,28.64
2022-08-20T17:10:35.848Z,28.57
2022-08-20T17:13:15.145Z,28.49
2022-08-20T17:15:44.487Z,28.47
2022-08-20T17:18:48.576Z,28.54
2022-08-20T17:21:23.326Z,28.51
2022-08-20T17:24:17.356Z,28.45
2022-08-20T17:26:49.593Z,28.41
2022-08-20T17:29:24.170Z,28.29
2022-08-20T17:31:54.375Z,28.21
2022-08-20T17:34:33.403Z,28.11
2022-08-20T17:37:21.323Z,28.08
2022-08-20T17:39:54.364Z,28.04
2022-08-20T17:42:25.876Z,27.99
2022-08-20T17:45:09.966Z,28.01
2022-08-20T17:47:40.392Z,28.00
2022-08-20T17:50:20.689Z,27.98
2022-08-20T17:52:52.235Z,28.00
2022-08-20T17:55:20.517Z,27.98
2022-08-20T17:57:56.442Z,27.98
2022-08-20T18:00:28.549Z,27.97
2022-08-20T18:03:23.858Z,27.94
2022-08-20T18:06:02.511Z,27.91
2022-08-20T18:08:39.798Z,27.91
2022-08-20T18:11:12.745Z,27.90
2022-08-20T18:13:45.013Z,27.89
2022-08-20T18:16:26.228Z,27.90
2022-08-20T18:19:03.842Z,27.90
2022-08-20T18:21:39.841Z,27.89
2022-08-20T18:24:15.691Z,27.86
2022-08-20T18:27:01.362Z,27.81
2022-08-20T18:29:34.174Z,27.80
2022-08-20T18:32:06.002Z,27.75
2022-08-20T18:34:33.094Z,27.72
2022-08-20T18:37:21.564Z,27.69
2022-08-20T18:39:50.425Z,27.67
2022-08-20T18:42:32.192Z,27.66
2022-08-20T18:45:00.438Z,27.63
2022-08-20T18:47:40.932Z,27.63
2022-08-20T18:50:15.945Z,27.64
2022-08-20T18:52:53.300Z,27.62
2022-08-20T18:55:33.301Z,27.56
2022-08-20T18:58:06.909Z,27.53
2022-08-20T19:00:42.607Z,27.55
2022-08-20T19:03:22.357Z,27.58
2022-08-20T19:06:02.624Z,27.55
2022-08-20T19:08:55.479Z,27.51
2022-08-20T19:11:59.499Z,27.48
2022-08-20T19:14:39.766Z,27.56
2022-08-20T19:17:14.317Z,27.62
2022-08-20T19:19:41.665Z,27.56
2022-08-20T19:22:13.326Z,27.75
2022-08-20T19:24:44.504Z,27.76
2022-08-20T19:27:13.394Z,27.81
2022-08-20T19:29:47.299Z,27.80
2022-08-20T19:32:24.421Z,27.81
2022-08-20T19:35:03.048Z,27.75
2022-08-20T19:37:46.552Z,27.75
2022-08-20T19:40:21.499Z,27.78
2022-08-20T19:42:49.519Z,27.80
2022-08-20T19:45:25.553Z,27.81
2022-08-20T19:48:14.434Z,27.85
2022-08-20T19:50:54.742Z,27.83
2022-08-20T19:53:35.136Z,27.82
2022-08-20T19:56:04.330Z,27.81
2022-08-20T19:58:33.050Z,27.81
2022-08-20T20:01:03.253Z,27.74
2022-08-20T20:03:34.534Z,27.71
2022-08-20T20:06:16.887Z,27.66
2022-08-20T20:09:16.176Z,27.68
2022-08-20T20:11:48.410Z,27.67
2022-08-20T20:14:18.346Z,27.59
2022-08-20T20:16:49.271Z,27.54
2022-08-20T20:19:32.698Z,27.51
2022-08-20T20:22:18.865Z,27.44
2022-08-20T20:25:00.353Z,27.44
2022-08-20T20:27:29.238Z,27.37
2022-08-20T20:30:07.757Z,27.35
2022-08-20T20:32:35.416Z,27.32
2022-08-20T20:35:06.305Z,27.31
2022-08-20T20:37:50.231Z,27.32
2022-08-20T20:40:25.897Z,27.29
2022-08-20T20:43:09.154Z,27.24
2022-08-20T20:45:46.409Z,27.24
2022-08-20T20:48:27.817Z,27.20
2022-08-20T20:51:01.127Z,27.18
2022-08-20T20:53:51.679Z,27.11
2022-08-20T20:56:42.724Z,27.05
2022-08-20T20:59:10.832Z,27.04
2022-08-20T21:01:48.907Z,27.05
2022-08-20T21:04:23.729Z,27.06
2022-08-20T21:06:53.361Z,27.05
2022-08-20T21:09:22.488Z,27.03
2022-08-20T21:11:49.940Z,27.00
2022-08-20T21:14:18.167Z,26.94
2022-08-20T21:16:45.632Z,26.95
2022-08-20T21:19:13.183Z,26.95
2022-08-20T21:21:41.719Z,26.90
2022-08-20T21:24:10.146Z,26.89
2022-08-20T21:26:38.361Z,26.90
2022-08-20T21:29:06.958Z,26.90
2022-08-20T21:31:36.995Z,26.92
2022-08-20T21:34:04.465Z,26.92
2022-08-20T21:36:31.657Z,26.88
2022-08-20T21:38:58.877Z,26.85
2022-08-20T21:41:30.057Z,26.84
2022-08-20T21:43:59.401Z,26.79
2022-08-20T21:46:28.931Z,26.76
2022-08-20T21:48:56.636Z,26.77
2022-08-20T21:51:23.937Z,26.71
2022-08-20T21:53:51.410Z,26.67
2022-08-20T21:56:19.062Z,26.66
2022-08-20T21:58:49.602Z,26.66
2022-08-20T22:01:17.891Z,26.63
2022-08-20T22:03:45.180Z,26.60
2022-08-20T22:06:16.798Z,26.57
2022-08-20T22:08:44.031Z,26.55
2022-08-20T22:11:12.086Z,26.57
2022-08-20T22:13:40.278Z,26.57
2022-08-20T22:16:18.734Z,26.58
2022-08-20T22:18:47.049Z,26.59
2022-08-20T22:21:20.979Z,26.58
2022-08-20T22:23:48.325Z,26.58
2022-08-20T22:26:16.571Z,26.57
2022-08-20T22:28:44.408Z,26.57
2022-08-20T22:31:22.014Z,26.52
2022-08-20T22:33:49.270Z,26.50
2022-08-20T22:36:16.538Z,26.49
2022-08-20T22:38:43.875Z,26.50
2022-08-20T22:41:15.490Z,26.49
2022-08-20T22:43:56.721Z,26.49
2022-08-20T22:46:30.790Z,26.50
2022-08-20T22:48:58.191Z,26.52
2022-08-20T22:51:31.247Z,26.57
2022-08-20T22:54:00.215Z,26.59
2022-08-20T22:56:29.845Z,26.61
2022-08-20T22:58:59.562Z,26.57
2022-08-20T23:01:28.833Z,26.55
2022-08-20T23:04:03.122Z,26.52
2022-08-20T23:06:32.115Z,26.48
2022-08-20T23:08:59.613Z,26.48
2022-08-20T23:11:27.047Z,26.47
2022-08-20T23:13:54.504Z,26.48
2022-08-20T23:16:21.653Z,26.47
2022-08-20T23:18:48.943Z,26.46
2022-08-20T23:21:16.123Z,26.46
2022-08-20T23:23:43.275Z,26.48
2022-08-20T23:26:15.622Z,26.49
2022-08-20T23:28:43.016Z,26.49
2022-08-20T23:31:10.427Z,26.47
2022-08-20T23:33:39.843Z,26.45
2022-08-20T23:36:10.991Z,26.43
2022-08-20T23:38:38.823Z,26.40
2022-08-20T23:41:06.102Z,26.42
2022-08-20T23:43:33.490Z,26.44
2022-08-20T23:46:04.254Z,26.47
2022-08-20T23:48:31.954Z,26.47
2022-08-20T23:50:59.102Z,26.46
2022-08-20T23:53:26.306Z,26.45
2022-08-20T23:55:53.627Z,26.46
2022-08-20T23:58:20.759Z,26.46
